Time;durP1;ratioP1;P1;durP2;ratioP2;P2;SDS_P1;SDS_P2;PMS_P1;PMS_P2;Temp;Humidity;BMP_temperature;BMP_pressure;BME280_temperature;BME280_humidity;BME280_pressure;Samples;Min_cycle;Max_cycle;Signal;HPM_P1;HPM_P2
2024/02/26 00:02:37;;;;;;;14.85;13.18;;;;;;;-146.18;100.00;67994.34;10346993;27;20093;-72
2024/02/26 00:07:34;;;;;;;15.73;14.13;;;;;;;-146.18;100.00;67994.34;10345563;27;20047;-72
2024/02/26 00:12:31;;;;;;;14.10;12.80;;;;;;;-146.18;100.00;67994.34;10344992;27;20048;-72
2024/02/26 00:17:27;;;;;;;15.15;13.40;;;;;;;-146.18;100.00;67994.34;10348430;27;20507;-73
2024/02/26 00:22:23;;;;;;;15.73;14.10;;;;;;;-146.18;100.00;67994.34;10353871;27;20048;-72
2024/02/26 00:27:20;;;;;;;14.13;12.73;;;;;;;-146.18;100.00;67994.34;10358091;27;20120;-72
2024/02/26 00:32:17;;;;;;;15.80;13.32;;;;;;;-146.18;100.00;67994.34;10353604;27;20044;-72
2024/02/26 00:37:13;;;;;;;16.20;13.68;;;;;;;-146.18;100.00;67994.34;10348501;27;20097;-74
2024/02/26 00:42:10;;;;;;;16.65;13.98;;;;;;;-146.18;100.00;67994.34;10349413;28;20097;-74
2024/02/26 00:47:06;;;;;;;14.82;13.43;;;;;;;-146.18;100.00;67994.34;10358078;27;20044;-72
2024/02/26 00:52:03;;;;;;;15.05;13.57;;;;;;;-146.18;100.00;67994.34;10356088;27;20044;-72
2024/02/26 00:56:59;;;;;;;16.52;14.82;;;;;;;-146.18;100.00;67994.34;10362723;27;20040;-74
2024/02/26 01:01:56;;;;;;;15.02;13.48;;;;;;;-146.18;100.00;67994.34;10351820;27;20061;-73
2024/02/26 01:06:52;;;;;;;15.57;13.77;;;;;;;-146.18;100.00;67994.34;10360318;27;20036;-73
2024/02/26 01:11:49;;;;;;;16.08;14.48;;;;;;;-146.18;100.00;67994.34;10359167;27;20284;-72
2024/02/26 01:16:45;;;;;;;15.90;14.30;;;;;;;-146.18;100.00;67994.34;10353914;27;20167;-73
2024/02/26 01:21:42;;;;;;;15.02;13.63;;;;;;;-146.18;100.00;67994.34;10352825;27;20044;-73
2024/02/26 01:26:39;;;;;;;15.13;13.63;;;;;;;-146.18;100.00;67994.34;10356611;27;20388;-72
2024/02/26 01:31:35;;;;;;;16.50;14.07;;;;;;;-146.18;100.00;67994.34;10356114;27;20048;-73
2024/02/26 01:36:32;;;;;;;16.88;15.07;;;;;;;-146.18;100.00;67994.34;10352418;27;20051;-72
2024/02/26 01:41:28;;;;;;;17.42;14.75;;;;;;;-146.18;100.00;67994.34;10360260;27;20121;-72
2024/02/26 01:46:25;;;;;;;17.10;14.13;;;;;;;-146.18;100.00;67994.34;10354037;27;20087;-73
2024/02/26 01:51:22;;;;;;;16.13;14.32;;;;;;;-146.18;100.00;67994.34;10364634;27;20040;-74
2024/02/26 01:56:21;;;;;;;15.90;14.40;;;;;;;-146.18;100.00;67994.34;10345334;27;20055;-72
2024/02/26 02:01:20;;;;;;;15.63;14.02;;;;;;;-146.18;100.00;67994.34;10355731;27;20043;-73
2024/02/26 02:06:17;;;;;;;17.45;15.48;;;;;;;-146.18;100.00;67994.34;10345321;28;20047;-72
2024/02/26 02:11:14;;;;;;;16.55;14.98;;;;;;;-146.18;100.00;67994.34;10351020;27;20116;-73
2024/02/26 02:16:11;;;;;;;18.63;16.17;;;;;;;-146.18;100.00;67994.34;10354605;28;20040;-74
2024/02/26 02:21:07;;;;;;;18.30;16.38;;;;;;;-146.18;100.00;67994.34;10347597;27;20040;-71
2024/02/26 02:26:04;;;;;;;19.42;16.02;;;;;;;-146.18;100.00;67994.34;10351382;27;20044;-72
2024/02/26 02:31:01;;;;;;;20.13;17.00;;;;;;;-146.18;100.00;67994.34;10353938;27;20404;-72
2024/02/26 02:35:57;;;;;;;20.65;16.77;;;;;;;-146.18;100.00;67994.34;10340247;27;20052;-72
2024/02/26 02:40:54;;;;;;;19.85;16.70;;;;;;;-146.18;100.00;67994.34;10349406;27;20559;-72
2024/02/26 02:45:51;;;;;;;20.08;17.17;;;;;;;-146.18;100.00;67994.34;10354502;27;20052;-73
2024/02/26 02:50:47;;;;;;;21.10;17.38;;;;;;;-146.18;100.00;67994.34;10348093;27;20051;-72
2024/02/26 02:55:44;;;;;;;20.13;17.10;;;;;;;-146.18;100.00;67994.34;10348791;27;20500;-72
2024/02/26 03:00:40;;;;;;;21.83;17.52;;;;;;;-146.18;100.00;67994.34;10351828;27;20051;-72
2024/02/26 03:05:37;;;;;;;20.60;17.35;;;;;;;-146.18;100.00;67994.34;10346511;27;20063;-72
2024/02/26 03:10:34;;;;;;;20.00;17.88;;;;;;;-146.18;100.00;67994.34;10343740;27;20052;-72
2024/02/26 03:15:30;;;;;;;20.67;17.92;;;;;;;-146.18;100.00;67994.34;10348635;27;20101;-73
2024/02/26 03:20:26;;;;;;;21.48;18.00;;;;;;;-146.18;100.00;67994.34;10347679;27;20130;-72
2024/02/26 03:25:23;;;;;;;20.77;17.60;;;;;;;-146.18;100.00;67994.34;10351252;27;20066;-72
2024/02/26 03:30:19;;;;;;;19.67;17.55;;;;;;;-146.18;100.00;67994.34;10350996;27;20056;-72
2024/02/26 03:35:16;;;;;;;19.20;17.15;;;;;;;-146.18;100.00;67994.34;10340004;27;20567;-72
2024/02/26 03:40:14;;;;;;;22.20;17.95;;;;;;;-146.18;100.00;67994.34;10349690;27;20043;-72
2024/02/26 03:45:11;;;;;;;20.90;18.75;;;;;;;-146.18;100.00;67994.34;10352562;27;20048;-71
2024/02/26 03:50:08;;;;;;;25.85;18.13;;;;;;;-146.18;100.00;67994.34;10349794;27;20068;-74
2024/02/26 03:55:05;;;;;;;23.83;19.45;;;;;;;-146.18;100.00;67994.34;10346611;27;20048;-73
2024/02/26 04:00:01;;;;;;;23.27;18.38;;;;;;;-146.18;100.00;67994.34;10359893;28;20040;-74
2024/02/26 04:04:59;;;;;;;22.10;19.42;;;;;;;-146.18;100.00;67994.34;10363256;28;20562;-72
2024/02/26 04:09:56;;;;;;;21.15;18.90;;;;;;;-146.18;100.00;67994.34;10363606;27;20147;-72
2024/02/26 04:14:52;;;;;;;23.77;19.83;;;;;;;-146.18;100.00;67994.34;10343907;28;20384;-74
2024/02/26 04:19:49;;;;;;;21.30;19.02;;;;;;;-146.18;100.00;67994.34;10350776;28;20135;-74
2024/02/26 04:24:45;;;;;;;22.35;19.95;;;;;;;-146.18;100.00;67994.34;10356420;28;20510;-72
2024/02/26 04:29:42;;;;;;;25.67;19.92;;;;;;;-146.18;100.00;67994.34;10360179;27;20040;-72
2024/02/26 04:34:38;;;;;;;22.02;19.13;;;;;;;-146.18;100.00;67994.34;10364125;27;20056;-72
2024/02/26 04:39:35;;;;;;;22.35;19.95;;;;;;;-146.18;100.00;67994.34;10352623;27;20048;-72
2024/02/26 04:44:32;;;;;;;25.35;18.60;;;;;;;-146.18;100.00;67994.34;10349023;27;20048;-71
2024/02/26 04:49:29;;;;;;;24.38;19.90;;;;;;;-146.18;100.00;67994.34;10355075;27;20036;-73
2024/02/26 04:54:25;;;;;;;22.48;18.88;;;;;;;-146.18;100.00;67994.34;10357322;27;20468;-71
2024/02/26 04:59:22;;;;;;;23.88;19.00;;;;;;;-146.18;100.00;67994.34;10354497;27;20046;-70
2024/02/26 05:04:18;;;;;;;24.30;19.60;;;;;;;-146.18;100.00;67994.34;10357819;27;20071;-73
2024/02/26 05:09:15;;;;;;;24.58;19.90;;;;;;;-146.18;100.00;67994.34;10353597;27;20044;-71
2024/02/26 05:14:12;;;;;;;25.05;19.48;;;;;;;-146.18;100.00;67994.34;10339976;28;20048;-72
2024/02/26 05:19:08;;;;;;;21.33;19.13;;;;;;;-146.18;100.00;67994.34;10362596;27;20052;-72
2024/02/26 05:24:05;;;;;;;22.17;19.17;;;;;;;-146.18;100.00;67994.34;10353900;27;20054;-71
2024/02/26 05:29:02;;;;;;;24.30;19.25;;;;;;;-146.18;100.00;67994.34;10358836;27;20119;-71
2024/02/26 05:33:59;;;;;;;23.27;19.58;;;;;;;-146.18;100.00;67994.34;10352095;27;20048;-72
2024/02/26 05:38:57;;;;;;;22.65;19.90;;;;;;;-146.18;100.00;67994.34;10356931;27;20537;-71
2024/02/26 05:43:54;;;;;;;23.85;20.77;;;;;;;-146.18;100.00;67994.34;10345814;27;20056;-72
2024/02/26 05:48:52;;;;;;;22.00;19.17;;;;;;;-146.18;100.00;67994.34;10351999;27;20109;-72
2024/02/26 05:53:53;;;;;;;24.25;19.73;;;;;;;-146.18;100.00;67994.34;10352207;28;20070;-72
2024/02/26 05:58:51;;;;;;;21.05;18.42;;;;;;;-146.18;100.00;67994.34;10348683;27;20059;-71
2024/02/26 06:03:48;;;;;;;21.90;18.80;;;;;;;-146.18;100.00;67994.34;10343383;28;20075;-73
2024/02/26 06:08:45;;;;;;;20.88;18.25;;;;;;;-146.18;100.00;67994.34;10345365;28;20032;-72
2024/02/26 06:13:41;;;;;;;20.67;18.45;;;;;;;-146.18;100.00;67994.34;10355682;27;20040;-71
2024/02/26 06:18:38;;;;;;;22.23;19.38;;;;;;;-146.18;100.00;67994.34;10350934;27;20051;-71
2024/02/26 06:23:34;;;;;;;25.40;20.15;;;;;;;-146.18;100.00;67994.34;10341655;28;20526;-73
2024/02/26 06:28:33;;;;;;;24.52;20.83;;;;;;;-146.18;100.00;67994.34;10352541;27;20450;-71
2024/02/26 06:33:30;;;;;;;27.67;20.58;;;;;;;-146.18;100.00;67994.34;10352319;27;20130;-71
2024/02/26 06:38:26;;;;;;;24.05;20.90;;;;;;;-146.18;100.00;67994.34;10340636;27;20567;-72
2024/02/26 06:43:23;;;;;;;22.65;19.35;;;;;;;-146.18;100.00;67994.34;10349664;27;20059;-72
2024/02/26 06:48:19;;;;;;;24.08;20.75;;;;;;;-146.18;100.00;67994.34;10349439;27;20051;-72
2024/02/26 06:53:16;;;;;;;23.98;20.13;;;;;;;-146.18;100.00;67994.34;10343876;27;20048;-71
2024/02/26 06:58:13;;;;;;;24.45;21.02;;;;;;;-146.18;100.00;67994.34;10346668;27;20044;-72
2024/02/26 07:03:10;;;;;;;22.40;19.63;;;;;;;-146.18;100.00;67994.34;10356385;27;20052;-74
2024/02/26 07:08:07;;;;;;;23.80;20.33;;;;;;;-146.18;100.00;67994.34;10353083;27;20078;-71
2024/02/26 07:13:03;;;;;;;27.30;20.45;;;;;;;-146.18;100.00;67994.34;10350195;27;20055;-71
2024/02/26 07:18:03;;;;;;;25.58;19.83;;;;;;;-146.18;100.00;67994.34;10348629;27;20052;-71
2024/02/26 07:23:00;;;;;;;26.90;20.58;;;;;;;-146.18;100.00;67994.34;10351965;27;20503;-71
2024/02/26 07:27:56;;;;;;;25.95;19.85;;;;;;;-146.18;100.00;67994.34;10351549;27;20445;-70
2024/02/26 07:32:53;;;;;;;23.77;20.27;;;;;;;-146.18;100.00;67994.34;10359623;27;20499;-71
2024/02/26 07:37:50;;;;;;;25.70;20.50;;;;;;;-146.18;100.00;67994.34;10359419;27;20053;-72
2024/02/26 07:42:46;;;;;;;26.10;19.80;;;;;;;-146.18;100.00;67994.34;10357744;27;20047;-71
2024/02/26 07:47:43;;;;;;;23.20;20.67;;;;;;;-146.18;100.00;67994.34;10356698;27;20046;-71
2024/02/26 07:52:40;;;;;;;25.70;20.10;;;;;;;-146.18;100.00;67994.34;10355976;27;20048;-72
2024/02/26 07:57:37;;;;;;;23.83;19.60;;;;;;;-146.18;100.00;67994.34;10353255;27;20101;-71
2024/02/26 08:02:34;;;;;;;22.27;19.88;;;;;;;-146.18;100.00;67994.34;10355663;27;20040;-72
2024/02/26 08:07:30;;;;;;;24.58;20.05;;;;;;;-146.18;100.00;67994.34;10351376;27;20043;-72
2024/02/26 08:12:27;;;;;;;24.67;20.67;;;;;;;-146.18;100.00;67994.34;10362655;28;20062;-72
2024/02/26 08:17:24;;;;;;;24.85;19.90;;;;;;;-146.18;100.00;67994.34;10357915;27;20040;-71
2024/02/26 08:22:20;;;;;;;25.38;21.02;;;;;;;-146.18;100.00;67994.34;10359646;27;20044;-71
2024/02/26 08:27:17;;;;;;;24.13;18.95;;;;;;;-146.18;100.00;67994.34;10355799;27;20044;-72
2024/02/26 08:32:15;;;;;;;24.38;19.50;;;;;;;-146.18;100.00;67994.34;10352023;27;20479;-71
2024/02/26 08:37:11;;;;;;;26.15;19.55;;;;;;;-146.18;100.00;67994.34;10351898;27;20048;-71
2024/02/26 08:42:08;;;;;;;24.00;19.45;;;;;;;-146.18;100.00;67994.34;10350286;28;20048;-73
2024/02/26 08:47:04;;;;;;;27.25;20.40;;;;;;;-146.18;100.00;67994.34;10355041;27;20397;-71
2024/02/26 08:52:01;;;;;;;24.98;20.42;;;;;;;-146.18;100.00;67994.34;10359950;27;20479;-71
2024/02/26 08:56:57;;;;;;;21.25;18.80;;;;;;;-146.18;100.00;67994.34;10351445;27;20130;-71
2024/02/26 09:01:54;;;;;;;23.95;19.38;;;;;;;-146.18;100.00;67994.34;10357147;27;20396;-71
2024/02/26 09:06:51;;;;;;;23.38;19.08;;;;;;;-146.18;100.00;67994.34;10358337;27;20141;-72
2024/02/26 09:11:51;;;;;;;24.77;19.77;;;;;;;-146.18;100.00;67994.34;10358351;27;20047;-71
2024/02/26 09:16:51;;;;;;;22.83;19.40;;;;;;;-146.18;100.00;67994.34;10356789;27;20543;-71
2024/02/26 09:21:47;;;;;;;21.45;19.17;;;;;;;-146.18;100.00;67994.34;10351981;27;20044;-72
2024/02/26 09:26:44;;;;;;;24.70;19.77;;;;;;;-146.18;100.00;67994.34;10353877;27;20044;-71
2024/02/26 09:31:41;;;;;;;23.33;18.77;;;;;;;-146.18;100.00;67994.34;10358178;27;20449;-71
2024/02/26 09:36:37;;;;;;;21.48;19.10;;;;;;;-146.18;100.00;67994.34;10352558;27;20083;-71
2024/02/26 09:41:34;;;;;;;23.92;19.55;;;;;;;-146.18;100.00;67994.34;10362142;27;20121;-71
2024/02/26 09:46:31;;;;;;;21.85;18.98;;;;;;;-146.18;100.00;67994.34;10351380;27;20458;-71
2024/02/26 09:51:28;;;;;;;21.35;18.98;;;;;;;-146.18;100.00;67994.34;10364157;27;20076;-72
2024/02/26 09:56:25;;;;;;;24.63;21.05;;;;;;;-146.18;100.00;67994.34;10352945;27;20076;-71
2024/02/26 10:01:24;;;;;;;22.77;19.77;;;;;;;-146.18;100.00;67994.34;10353096;27;20504;-72
2024/02/26 10:06:21;;;;;;;23.48;19.55;;;;;;;-146.18;100.00;67994.34;10348644;27;20060;-71
2024/02/26 10:11:18;;;;;;;25.13;19.75;;;;;;;-146.18;100.00;67994.34;10358451;27;20077;-71
2024/02/26 10:16:14;;;;;;;27.35;20.55;;;;;;;-146.18;100.00;67994.34;10351081;27;20040;-71
2024/02/26 10:21:11;;;;;;;28.05;20.70;;;;;;;-146.18;100.00;67994.34;10353244;27;20126;-71
2024/02/26 10:26:10;;;;;;;24.02;19.35;;;;;;;-146.18;100.00;67994.34;10356621;27;20563;-72
2024/02/26 10:31:07;;;;;;;26.88;19.35;;;;;;;-146.18;100.00;67994.34;10355411;27;20055;-71
2024/02/26 10:36:05;;;;;;;28.73;20.60;;;;;;;-146.18;100.00;67994.34;10352205;27;20045;-71
2024/02/26 10:41:12;;;;;;;28.70;20.58;;;;;;;-146.18;100.00;67994.34;10355317;27;20044;-71
2024/02/26 10:46:09;;;;;;;24.70;19.15;;;;;;;-146.18;100.00;67994.34;10362666;27;20048;-72
2024/02/26 10:51:09;;;;;;;24.20;17.27;;;;;;;-146.18;100.00;67994.34;10355222;27;20056;-71
2024/02/26 10:56:07;;;;;;;26.60;18.20;;;;;;;-146.18;100.00;67994.34;10333671;27;20139;-71
2024/02/26 11:01:04;;;;;;;24.27;17.35;;;;;;;-146.18;100.00;67994.34;10351121;27;20065;-71
2024/02/26 11:06:01;;;;;;;25.85;17.27;;;;;;;-146.18;100.00;67994.34;10352923;27;20097;-71
2024/02/26 11:10:59;;;;;;;25.05;16.55;;;;;;;-146.18;100.00;67994.34;10346156;27;20043;-72
2024/02/26 11:15:57;;;;;;;25.90;16.48;;;;;;;-146.18;100.00;67994.34;10353182;27;20044;-71
2024/02/26 11:20:57;;;;;;;21.90;16.35;;;;;;;-146.18;100.00;67994.34;10359851;27;20079;-71
2024/02/26 11:25:56;;;;;;;23.88;16.55;;;;;;;-146.18;100.00;67994.34;10345316;28;20056;-72
2024/02/26 11:30:54;;;;;;;20.70;16.30;;;;;;;-146.18;100.00;67994.34;10353482;27;20055;-72
2024/02/26 11:35:51;;;;;;;24.67;14.50;;;;;;;-146.18;100.00;67994.34;10358482;27;20048;-71
2024/02/26 11:40:47;;;;;;;19.38;14.50;;;;;;;-146.18;100.00;67994.34;10351739;27;20551;-72
2024/02/26 11:45:49;;;;;;;24.75;15.43;;;;;;;-146.18;100.00;67994.34;10352765;27;20047;-71
2024/02/26 11:50:53;;;;;;;18.97;14.47;;;;;;;-146.18;100.00;67994.34;10356736;27;20062;-71
2024/02/26 11:56:27;;;;;;;23.38;14.60;;;;;;;-146.18;100.00;67994.34;10364320;27;20075;-72
2024/02/26 12:01:52;;;;;;;20.98;13.38;;;;;;;-146.18;100.00;67994.34;10343914;27;20545;-72
2024/02/26 12:06:56;;;;;;;18.58;14.02;;;;;;;-146.18;100.00;67994.34;10352732;27;20059;-72
2024/02/26 12:11:54;;;;;;;18.75;14.63;;;;;;;-146.18;100.00;67994.34;10337321;27;20045;-72
2024/02/26 12:16:52;;;;;;;18.23;13.27;;;;;;;-146.18;100.00;67994.34;10352377;27;20047;-71
2024/02/26 12:21:55;;;;;;;18.95;13.80;;;;;;;-146.18;100.00;67994.34;10363650;27;20054;-71
2024/02/26 12:26:52;;;;;;;18.85;14.10;;;;;;;-146.18;100.00;67994.34;10367416;27;20049;-72
2024/02/26 12:31:48;;;;;;;18.33;14.45;;;;;;;-146.18;100.00;67994.34;10357150;27;20051;-71
2024/02/26 12:36:45;;;;;;;20.48;14.07;;;;;;;-146.18;100.00;67994.34;10350235;27;20111;-71
2024/02/26 12:41:49;;;;;;;20.92;14.77;;;;;;;-146.18;100.00;67994.34;10358577;27;20466;-72
2024/02/26 12:46:45;;;;;;;16.77;13.40;;;;;;;-146.18;100.00;67994.34;10361034;27;20040;-71
2024/02/26 12:51:43;;;;;;;18.25;12.95;;;;;;;-146.18;100.00;67994.34;10358118;27;20043;-71
2024/02/26 12:56:40;;;;;;;16.67;12.65;;;;;;;-146.18;100.00;67994.34;10358332;27;20120;-72
2024/02/26 13:01:37;;;;;;;14.75;11.35;;;;;;;-146.18;100.00;67994.34;10362958;27;20101;-72
2024/02/26 13:06:34;;;;;;;17.98;12.25;;;;;;;-146.18;100.00;67994.34;10357988;27;20587;-71
2024/02/26 13:11:32;;;;;;;17.13;12.68;;;;;;;-146.18;100.00;67994.34;10355556;27;20055;-71
2024/02/26 13:16:29;;;;;;;16.15;12.23;;;;;;;-146.18;100.00;67994.34;10339801;28;20089;-73
2024/02/26 13:21:26;;;;;;;17.73;12.18;;;;;;;-146.18;100.00;67994.34;10340305;28;20052;-71
2024/02/26 13:26:26;;;;;;;17.00;11.98;;;;;;;-146.18;100.00;67994.34;10354514;27;20530;-71
2024/02/26 13:31:22;;;;;;;15.98;12.25;;;;;;;-146.18;100.00;67994.34;10353509;27;20047;-73
2024/02/26 13:36:19;;;;;;;13.98;11.07;;;;;;;-146.18;100.00;67994.34;10355029;27;20044;-72
2024/02/26 13:41:15;;;;;;;17.13;12.88;;;;;;;-146.18;100.00;67994.34;10355583;27;20044;-71
2024/02/26 13:46:13;;;;;;;15.63;12.15;;;;;;;-146.18;100.00;67994.34;10339727;28;20500;-71
2024/02/26 13:51:10;;;;;;;17.00;12.90;;;;;;;-146.18;100.00;67994.34;10341492;28;20353;-71
2024/02/26 13:56:07;;;;;;;15.30;11.60;;;;;;;-146.18;100.00;67994.34;10356987;27;20049;-71
2024/02/26 14:01:05;;;;;;;16.00;12.07;;;;;;;-146.18;100.00;67994.34;10349787;27;20153;-71
2024/02/26 14:06:02;;;;;;;12.50;10.73;;;;;;;-146.18;100.00;67994.34;10353500;27;20048;-71
2024/02/26 14:10:59;;;;;;;16.58;11.90;;;;;;;-146.18;100.00;67994.34;10349762;27;20134;-72
2024/02/26 14:15:56;;;;;;;16.90;11.73;;;;;;;-146.18;100.00;67994.34;10350915;27;20047;-71
2024/02/26 14:20:53;;;;;;;18.73;13.35;;;;;;;-146.18;100.00;67994.34;10354971;27;20075;-71
2024/02/26 14:25:49;;;;;;;16.40;12.27;;;;;;;-146.18;100.00;67994.34;10352472;27;20051;-71
2024/02/26 14:30:46;;;;;;;15.13;10.77;;;;;;;-146.18;100.00;67994.34;10357959;27;20040;-71
2024/02/26 14:35:42;;;;;;;13.70;10.38;;;;;;;-146.18;100.00;67994.34;10344053;27;20048;-71
2024/02/26 14:40:39;;;;;;;17.23;13.27;;;;;;;-146.18;100.00;67994.34;10347949;27;20097;-71
2024/02/26 14:45:35;;;;;;;17.92;13.52;;;;;;;-146.18;100.00;67994.34;10351580;27;20096;-71
2024/02/26 14:50:32;;;;;;;15.40;11.80;;;;;;;-146.18;100.00;67994.34;10358543;27;20044;-72
2024/02/26 14:55:28;;;;;;;15.65;12.70;;;;;;;-146.18;100.00;67994.34;10354585;27;20708;-72
2024/02/26 15:00:24;;;;;;;16.95;13.70;;;;;;;-146.18;100.00;67994.34;10362251;27;20043;-71
2024/02/26 15:05:21;;;;;;;15.98;12.18;;;;;;;-146.18;100.00;67994.34;10358775;27;24413;-70
2024/02/26 15:10:18;;;;;;;20.17;14.02;;;;;;;-146.18;100.00;67994.34;10351376;27;20051;-71
2024/02/26 15:15:15;;;;;;;19.35;13.80;;;;;;;-146.18;100.00;67994.34;10358462;27;20047;-70
2024/02/26 15:20:12;;;;;;;16.40;13.13;;;;;;;-146.18;100.00;67994.34;10355998;27;20051;-71
2024/02/26 15:25:09;;;;;;;19.58;12.90;;;;;;;-146.18;100.00;67994.34;10350921;28;20078;-71
2024/02/26 15:30:09;;;;;;;17.30;13.10;;;;;;;-146.18;100.00;67994.34;10351250;27;20105;-71
2024/02/26 15:35:06;;;;;;;17.45;13.88;;;;;;;-146.18;100.00;67994.34;10352687;27;20070;-71
2024/02/26 15:40:03;;;;;;;16.60;13.27;;;;;;;-146.18;100.00;67994.34;10343920;28;20127;-71
2024/02/26 15:44:59;;;;;;;17.00;13.65;;;;;;;-146.18;100.00;67994.34;10346414;28;21142;-70
2024/02/26 15:49:56;;;;;;;16.63;12.77;;;;;;;-146.18;100.00;67994.34;10343895;28;20040;-71
2024/02/26 15:54:53;;;;;;;16.00;13.00;;;;;;;-146.18;100.00;67994.34;10357364;27;20064;-71
2024/02/26 15:59:52;;;;;;;17.10;13.88;;;;;;;-146.18;100.00;67994.34;10352224;27;20048;-72
2024/02/26 16:04:49;;;;;;;16.92;13.32;;;;;;;-146.18;100.00;67994.34;10367031;27;20631;-71
2024/02/26 16:09:51;;;;;;;20.55;14.57;;;;;;;-146.18;100.00;67994.34;10364227;27;20449;-71
2024/02/26 16:14:49;;;;;;;15.80;13.83;;;;;;;-146.18;100.00;67994.34;10358322;28;20044;-70
2024/02/26 16:19:46;;;;;;;15.23;12.27;;;;;;;-146.18;100.00;67994.34;10353445;28;20458;-70
2024/02/26 16:24:43;;;;;;;14.50;12.13;;;;;;;-146.18;100.00;67994.34;10363561;27;20547;-70
2024/02/26 16:29:39;;;;;;;16.05;12.70;;;;;;;-146.18;100.00;67994.34;10355230;27;20036;-71
2024/02/26 16:34:36;;;;;;;15.93;12.35;;;;;;;-146.18;100.00;67994.34;10355602;27;20044;-70
2024/02/26 16:39:36;;;;;;;16.27;13.13;;;;;;;-146.18;100.00;67994.34;10356757;27;20036;-72
2024/02/26 16:44:36;;;;;;;15.82;13.18;;;;;;;-146.18;100.00;67994.34;10354949;27;20177;-70
2024/02/26 16:49:33;;;;;;;19.27;14.25;;;;;;;-146.18;100.00;67994.34;10359517;27;20055;-71
2024/02/26 16:54:29;;;;;;;17.90;13.68;;;;;;;-146.18;100.00;67994.34;10350602;27;20553;-71
2024/02/26 16:59:27;;;;;;;17.80;13.55;;;;;;;-146.18;100.00;67994.34;10360010;27;20230;-71
2024/02/26 17:04:24;;;;;;;16.98;13.70;;;;;;;-146.18;100.00;67994.34;10361642;27;20400;-72
2024/02/26 17:09:22;;;;;;;18.42;13.57;;;;;;;-146.18;100.00;67994.34;10360846;27;20062;-72
2024/02/26 17:14:18;;;;;;;17.95;13.43;;;;;;;-146.18;100.00;67994.34;10351411;27;20040;-71
2024/02/26 17:19:15;;;;;;;15.70;13.57;;;;;;;-146.18;100.00;67994.34;10356627;27;20044;-71
2024/02/26 17:24:12;;;;;;;16.63;13.63;;;;;;;-146.18;100.00;67994.34;10351261;27;20532;-71
2024/02/26 17:29:09;;;;;;;19.15;14.90;;;;;;;-146.18;100.00;67994.34;10354644;27;20055;-71
2024/02/26 17:34:08;;;;;;;21.33;16.20;;;;;;;-146.18;100.00;67994.34;10360756;27;20544;-72
2024/02/26 17:39:05;;;;;;;17.75;15.02;;;;;;;-146.18;100.00;67994.34;10351098;27;20056;-71
2024/02/26 17:44:01;;;;;;;17.40;14.73;;;;;;;-146.18;100.00;67994.34;10343100;27;20052;-70
2024/02/26 17:48:58;;;;;;;18.20;15.43;;;;;;;-146.18;100.00;67994.34;10356868;27;20396;-70
2024/02/26 17:53:55;;;;;;;18.55;15.40;;;;;;;-146.18;100.00;67994.34;10347977;27;20499;-71
2024/02/26 17:58:51;;;;;;;19.77;15.48;;;;;;;-146.18;100.00;67994.34;10341038;27;20500;-70
2024/02/26 18:03:50;;;;;;;16.05;14.25;;;;;;;-146.18;100.00;67994.34;10352403;27;20048;-70
2024/02/26 18:08:47;;;;;;;17.80;14.15;;;;;;;-146.18;100.00;67994.34;10351394;27;20040;-70
2024/02/26 18:13:44;;;;;;;17.40;14.40;;;;;;;-146.18;100.00;67994.34;10347716;27;20079;-71
2024/02/26 18:18:46;;;;;;;18.30;15.02;;;;;;;-146.18;100.00;67994.34;10357383;27;20040;-71
2024/02/26 18:23:43;;;;;;;19.55;17.20;;;;;;;-146.18;100.00;67994.34;10344157;28;20479;-71
2024/02/26 18:28:39;;;;;;;19.58;14.65;;;;;;;-146.18;100.00;67994.34;10354898;27;20633;-71
2024/02/26 18:33:36;;;;;;;16.85;14.02;;;;;;;-146.18;100.00;67994.34;10349833;27;20041;-71
2024/02/26 18:38:33;;;;;;;16.33;14.25;;;;;;;-146.18;100.00;67994.34;10349715;27;20063;-70
2024/02/26 18:43:31;;;;;;;16.35;14.70;;;;;;;-146.18;100.00;67994.34;10346895;27;20044;-72
2024/02/26 18:48:27;;;;;;;16.83;14.13;;;;;;;-146.18;100.00;67994.34;10351817;27;20044;-71
2024/02/26 18:53:24;;;;;;;21.13;16.13;;;;;;;-146.18;100.00;67994.34;10351528;27;20052;-71
2024/02/26 18:58:20;;;;;;;18.50;14.07;;;;;;;-146.18;100.00;67994.34;10335171;27;20122;-70
2024/02/26 19:03:17;;;;;;;16.55;14.07;;;;;;;-146.18;100.00;67994.34;10342517;28;20067;-71
2024/02/26 19:08:16;;;;;;;18.17;14.50;;;;;;;-146.18;100.00;67994.34;10331515;28;20121;-70
2024/02/26 19:13:12;;;;;;;16.52;14.80;;;;;;;-146.18;100.00;67994.34;10345766;27;20422;-70
2024/02/26 19:18:10;;;;;;;18.20;14.27;;;;;;;-146.18;100.00;67994.34;10350707;27;20525;-70
2024/02/26 19:23:07;;;;;;;19.13;14.25;;;;;;;-146.18;100.00;67994.34;10349756;27;20043;-70
2024/02/26 19:28:04;;;;;;;17.08;14.50;;;;;;;-146.18;100.00;67994.34;10351664;27;20067;-70
2024/02/26 19:33:01;;;;;;;18.15;15.00;;;;;;;-146.18;100.00;67994.34;10348560;27;20040;-71
2024/02/26 19:37:57;;;;;;;20.50;14.27;;;;;;;-146.18;100.00;67994.34;10346839;27;20102;-70
2024/02/26 19:42:54;;;;;;;18.40;15.65;;;;;;;-146.18;100.00;67994.34;10344179;27;20052;-70
2024/02/26 19:47:50;;;;;;;18.88;14.30;;;;;;;-146.18;100.00;67994.34;10349032;27;20044;-70
2024/02/26 19:52:49;;;;;;;19.40;15.15;;;;;;;-146.18;100.00;67994.34;10343392;27;20506;-70
2024/02/26 19:57:45;;;;;;;18.48;14.75;;;;;;;-146.18;100.00;67994.34;10347869;27;20056;-70
2024/02/26 20:02:42;;;;;;;19.02;15.98;;;;;;;-146.18;100.00;67994.34;10348529;27;20044;-71
2024/02/26 20:07:38;;;;;;;17.85;14.48;;;;;;;-146.18;100.00;67994.34;10346628;27;20051;-70
2024/02/26 20:12:35;;;;;;;19.25;14.15;;;;;;;-146.18;100.00;67994.34;10345647;27;20098;-70
2024/02/26 20:17:32;;;;;;;21.55;16.17;;;;;;;-146.18;100.00;67994.34;10344824;28;20503;-70
2024/02/26 20:22:28;;;;;;;19.60;14.75;;;;;;;-146.18;100.00;67994.34;10356648;27;20127;-71
2024/02/26 20:27:25;;;;;;;21.30;15.48;;;;;;;-146.18;100.00;67994.34;10348380;27;20048;-70
2024/02/26 20:32:24;;;;;;;19.80;15.52;;;;;;;-146.18;100.00;67994.34;10347792;27;20044;-71
2024/02/26 20:37:22;;;;;;;23.38;16.88;;;;;;;-146.18;100.00;67994.34;10334371;27;20051;-72
2024/02/26 20:42:22;;;;;;;25.42;17.45;;;;;;;-146.18;100.00;67994.34;10345036;27;20043;-70
2024/02/26 20:47:19;;;;;;;23.52;16.80;;;;;;;-146.18;100.00;67994.34;10357899;27;20079;-69
2024/02/26 20:52:15;;;;;;;24.92;16.45;;;;;;;-146.18;100.00;67994.34;10350835;27;20043;-70
2024/02/26 20:57:12;;;;;;;29.27;17.58;;;;;;;-146.18;100.00;67994.34;10348000;27;20419;-70
2024/02/26 21:02:09;;;;;;;28.85;18.13;;;;;;;-146.18;100.00;67994.34;10337292;27;20044;-68
2024/02/26 21:07:06;;;;;;;27.75;18.35;;;;;;;-146.18;100.00;67994.34;10358464;27;20044;-72
2024/02/26 21:12:02;;;;;;;30.33;19.55;;;;;;;-146.18;100.00;67994.34;10351497;27;20450;-71
2024/02/26 21:16:59;;;;;;;29.40;18.58;;;;;;;-146.18;100.00;67994.34;10341040;27;20039;-71
2024/02/26 21:21:56;;;;;;;28.15;18.00;;;;;;;-146.18;100.00;67994.34;10351427;27;20055;-71
2024/02/26 21:26:52;;;;;;;34.90;20.08;;;;;;;-146.18;100.00;67994.34;10350912;27;20412;-72
2024/02/26 21:31:51;;;;;;;33.08;18.70;;;;;;;-146.18;100.00;67994.34;10350874;27;20056;-71
2024/02/26 21:36:47;;;;;;;29.05;19.08;;;;;;;-146.18;100.00;67994.34;10350713;27;20048;-74
2024/02/26 21:41:44;;;;;;;32.15;19.50;;;;;;;-146.18;100.00;67994.34;10343149;27;20624;-71
2024/02/26 21:46:43;;;;;;;30.60;17.80;;;;;;;-146.18;100.00;67994.34;10339823;27;20105;-73